Time;durP1;ratioP1;P1;durP2;ratioP2;P2;SDS_P1;SDS_P2;PMS_P1;PMS_P2;Temp;Humidity;BMP_temperature;BMP_pressure;BME280_temperature;BME280_humidity;BME280_pressure;Samples;Min_cycle;Max_cycle;Signal;HPM_P1;HPM_P2
2021/07/19 00:01:29;;;;;;;10.32;7.22;;;18.50;99.90;;;;;;5016481;28;25061;-74
2021/07/19 00:03:58;;;;;;;12.38;6.35;;;18.60;99.90;;;;;;5036278;28;25060;-71
2021/07/19 00:06:25;;;;;;;10.38;7.38;;;18.40;99.90;;;;;;5039705;28;25087;-74
2021/07/19 00:09:03;;;;;;;11.25;6.55;;;18.50;99.90;;;;;;5021841;28;25116;-74
2021/07/19 00:11:30;;;;;;;8.90;7.25;;;18.50;99.90;;;;;;5038180;28;25077;-72
2021/07/19 00:13:56;;;;;;;11.15;7.15;;;18.40;99.90;;;;;;5028390;28;25076;-72
2021/07/19 00:16:22;;;;;;;11.40;6.55;;;18.30;99.90;;;;;;5032274;28;25058;-75
2021/07/19 00:18:48;;;;;;;7.88;6.65;;;18.20;99.90;;;;;;5032922;28;25064;-72
2021/07/19 00:21:14;;;;;;;14.43;6.60;;;18.10;99.90;;;;;;5035429;28;25057;-74
2021/07/19 00:23:40;;;;;;;13.88;6.72;;;18.20;99.90;;;;;;5037905;28;25112;-73
2021/07/19 00:26:05;;;;;;;12.52;6.85;;;18.30;99.90;;;;;;5034539;28;25051;-76
2021/07/19 00:28:31;;;;;;;8.20;6.18;;;18.40;99.90;;;;;;5020704;28;25132;-74
2021/07/19 00:30:58;;;;;;;14.43;6.90;;;18.40;99.90;;;;;;5050036;28;25155;-73
2021/07/19 00:33:24;;;;;;;9.10;6.57;;;18.20;99.90;;;;;;5015648;28;25042;-73
2021/07/19 00:35:50;;;;;;;12.32;7.18;;;18.20;99.90;;;;;;5031547;28;25164;-73
2021/07/19 00:38:17;;;;;;;11.40;6.75;;;18.20;99.90;;;;;;5027918;28;25104;-72
2021/07/19 00:40:43;;;;;;;11.30;6.88;;;18.20;99.90;;;;;;5029465;28;25042;-74
2021/07/19 00:43:10;;;;;;;11.30;6.75;;;18.10;99.90;;;;;;5044296;28;25104;-73
2021/07/19 00:45:36;;;;;;;12.00;7.15;;;18.20;99.90;;;;;;5027992;28;25149;-74
2021/07/19 00:48:05;;;;;;;10.18;6.68;;;18.20;99.90;;;;;;5031959;28;25091;-72
2021/07/19 00:50:33;;;;;;;10.75;7.25;;;18.10;99.90;;;;;;5036182;28;25086;-71
2021/07/19 00:53:00;;;;;;;10.32;6.88;;;18.00;99.90;;;;;;5041235;28;25073;-74
2021/07/19 00:55:41;;;;;;;12.02;7.47;;;17.90;99.90;;;;;;5031667;28;25155;-74
2021/07/19 00:58:08;;;;;;;10.77;7.53;;;18.00;99.90;;;;;;5039576;28;25066;-73
2021/07/19 01:00:36;;;;;;;12.23;7.55;;;18.00;99.90;;;;;;5032901;28;25134;-73
2021/07/19 01:03:04;;;;;;;8.50;6.63;;;18.00;99.90;;;;;;5032769;28;25055;-75
2021/07/19 01:05:30;;;;;;;12.27;6.88;;;18.00;99.90;;;;;;5015757;28;25065;-74
2021/07/19 01:07:57;;;;;;;10.85;7.65;;;17.90;99.90;;;;;;5029859;28;25061;-74
2021/07/19 01:10:24;;;;;;;8.88;6.90;;;17.90;99.90;;;;;;5025664;28;25072;-74
2021/07/19 01:12:53;;;;;;;15.05;7.40;;;18.00;99.90;;;;;;5033473;28;25083;-74
2021/07/19 01:15:28;;;;;;;8.10;7.30;;;17.80;99.90;;;;;;5026690;28;25058;-75
2021/07/19 01:17:54;;;;;;;12.43;7.40;;;17.70;99.90;;;;;;5031798;28;25169;-75
2021/07/19 01:20:31;;;;;;;11.48;7.43;;;17.60;99.90;;;;;;5030297;28;25144;-75
2021/07/19 01:23:28;;;;;;;11.32;7.38;;;17.70;99.90;;;;;;5029816;28;25062;-74
2021/07/19 01:26:30;;;;;;;12.25;7.63;;;17.70;99.90;;;;;;5017492;28;25137;-75
2021/07/19 01:28:57;;;;;;;9.52;6.47;;;17.80;99.90;;;;;;5024839;28;25096;-72
2021/07/19 01:31:37;;;;;;;8.50;6.82;;;17.80;99.90;;;;;;5038491;28;25098;-77
2021/07/19 01:34:07;;;;;;;11.88;6.75;;;17.90;99.90;;;;;;5028445;28;25123;-75
2021/07/19 01:36:42;;;;;;;15.57;6.80;;;17.90;99.90;;;;;;5031102;28;25137;-73
2021/07/19 01:39:08;;;;;;;10.32;6.70;;;17.80;99.90;;;;;;5025765;28;25086;-74
2021/07/19 01:41:36;;;;;;;8.00;6.88;;;17.70;99.90;;;;;;5029069;28;25095;-73
2021/07/19 01:44:04;;;;;;;14.50;7.00;;;17.60;99.90;;;;;;5034349;28;25069;-73
2021/07/19 01:46:30;;;;;;;10.60;6.70;;;17.60;99.90;;;;;;5032549;28;25106;-73
2021/07/19 01:48:57;;;;;;;11.20;7.32;;;17.50;99.90;;;;;;5023390;28;25090;-73
2021/07/19 01:51:24;;;;;;;9.73;6.90;;;17.50;99.90;;;;;;5002497;28;25095;-75
2021/07/19 01:53:51;;;;;;;10.35;7.10;;;17.50;99.90;;;;;;5018292;28;25087;-73
2021/07/19 01:56:20;;;;;;;11.65;6.75;;;17.40;99.90;;;;;;5017847;28;25076;-74
2021/07/19 01:58:46;;;;;;;10.13;7.18;;;17.40;99.90;;;;;;5027740;28;25070;-73
2021/07/19 02:01:12;;;;;;;14.52;6.85;;;17.40;99.90;;;;;;5023097;28;25072;-73
2021/07/19 02:03:38;;;;;;;10.00;7.35;;;17.50;99.90;;;;;;5026592;28;25089;-74
2021/07/19 02:06:05;;;;;;;10.57;6.60;;;17.40;99.90;;;;;;5014580;28;25092;-76
2021/07/19 02:08:32;;;;;;;8.82;6.97;;;17.40;99.90;;;;;;5026021;28;25056;-73
2021/07/19 02:10:58;;;;;;;10.52;7.20;;;17.40;99.90;;;;;;5030197;28;25081;-72
2021/07/19 02:13:25;;;;;;;10.90;7.47;;;17.40;99.90;;;;;;5011559;28;25077;-76
2021/07/19 02:15:54;;;;;;;13.43;7.38;;;17.50;99.90;;;;;;5029416;28;25165;-73
2021/07/19 02:18:24;;;;;;;12.90;7.15;;;17.60;99.90;;;;;;5036247;28;25045;-76
2021/07/19 02:21:08;;;;;;;9.50;6.68;;;17.70;99.90;;;;;;5038828;28;25114;-73
2021/07/19 02:23:37;;;;;;;8.60;6.85;;;17.70;99.90;;;;;;5044440;28;25060;-74
2021/07/19 02:26:06;;;;;;;8.07;6.75;;;17.60;99.90;;;;;;5048060;28;25087;-76
2021/07/19 02:28:50;;;;;;;13.90;6.78;;;17.50;99.90;;;;;;5037073;28;25077;-76
2021/07/19 02:31:19;;;;;;;10.07;7.05;;;17.50;99.90;;;;;;5052351;28;25053;-75
2021/07/19 02:33:56;;;;;;;15.27;6.85;;;17.40;99.90;;;;;;5045761;28;25059;-77
2021/07/19 02:36:24;;;;;;;11.75;7.65;;;17.50;99.90;;;;;;5041703;28;25096;-76
2021/07/19 02:38:52;;;;;;;11.40;7.40;;;17.40;99.90;;;;;;5045363;28;25072;-74
2021/07/19 02:41:20;;;;;;;14.73;8.02;;;17.30;99.90;;;;;;5029792;28;25069;-72
2021/07/19 02:43:50;;;;;;;10.75;7.57;;;17.20;99.90;;;;;;5025708;28;25073;-76
2021/07/19 02:46:18;;;;;;;12.25;7.75;;;17.20;99.90;;;;;;5030819;28;25067;-73
2021/07/19 02:48:50;;;;;;;12.77;7.28;;;17.30;99.90;;;;;;5024427;28;25078;-73
2021/07/19 02:51:16;;;;;;;10.18;6.95;;;17.40;99.90;;;;;;5032464;28;25110;-73
2021/07/19 02:53:42;;;;;;;8.40;6.90;;;17.40;99.90;;;;;;5029029;28;25090;-73
2021/07/19 02:56:08;;;;;;;10.40;7.38;;;17.40;99.90;;;;;;5028392;28;25064;-74
2021/07/19 02:58:35;;;;;;;11.93;7.28;;;17.40;99.90;;;;;;5026554;28;25100;-74
2021/07/19 03:01:02;;;;;;;11.38;6.90;;;17.40;99.90;;;;;;5032280;28;25094;-74
2021/07/19 03:03:32;;;;;;;14.88;7.65;;;17.30;99.90;;;;;;5024958;28;25060;-73
2021/07/19 03:06:09;;;;;;;16.63;7.93;;;17.10;99.90;;;;;;5031011;28;25149;-72
2021/07/19 03:08:40;;;;;;;14.38;7.80;;;17.00;99.90;;;;;;5021461;28;25062;-73
2021/07/19 03:11:15;;;;;;;13.93;8.15;;;17.00;99.90;;;;;;5011285;28;25082;-73
2021/07/19 03:13:43;;;;;;;11.68;7.57;;;17.00;99.90;;;;;;5020992;28;25064;-74
2021/07/19 03:16:10;;;;;;;17.38;7.78;;;17.00;99.90;;;;;;5018368;28;25060;-74
2021/07/19 03:18:40;;;;;;;9.65;7.88;;;17.20;99.90;;;;;;5021263;28;25097;-73
2021/07/19 03:21:07;;;;;;;10.98;7.38;;;17.30;99.90;;;;;;5023600;28;26172;-74
2021/07/19 03:23:37;;;;;;;11.07;7.95;;;17.40;99.90;;;;;;5028087;28;25070;-72
2021/07/19 03:26:03;;;;;;;12.95;8.10;;;17.30;99.90;;;;;;5026468;28;25145;-73
2021/07/19 03:28:30;;;;;;;10.43;8.45;;;17.30;99.90;;;;;;5041722;28;25077;-75
2021/07/19 03:31:02;;;;;;;13.18;8.45;;;17.30;99.90;;;;;;5038427;28;25073;-70
2021/07/19 03:33:29;;;;;;;11.27;8.13;;;17.20;99.90;;;;;;5025659;28;25082;-73
2021/07/19 03:35:55;;;;;;;12.82;8.23;;;17.20;99.90;;;;;;5028105;28;25052;-73
2021/07/19 03:38:22;;;;;;;10.85;8.07;;;17.00;99.90;;;;;;5006585;28;25158;-75
2021/07/19 03:40:48;;;;;;;12.57;8.15;;;17.00;99.90;;;;;;5022449;28;25086;-74
2021/07/19 03:43:14;;;;;;;13.60;8.20;;;17.00;99.90;;;;;;5018618;28;25099;-75
2021/07/19 03:45:40;;;;;;;14.60;8.05;;;16.80;99.90;;;;;;5030514;28;25069;-72
2021/07/19 03:48:07;;;;;;;10.48;8.43;;;16.80;99.90;;;;;;5018877;28;25059;-73
2021/07/19 03:50:33;;;;;;;14.27;8.40;;;16.70;99.90;;;;;;5021525;28;25099;-73
2021/07/19 03:53:00;;;;;;;14.73;8.52;;;16.50;99.90;;;;;;5010867;28;25122;-74
2021/07/19 03:55:25;;;;;;;31.48;9.48;;;16.40;99.90;;;;;;4994225;28;25063;-74
2021/07/19 03:57:52;;;;;;;27.58;9.88;;;16.40;99.90;;;;;;5020803;28;25101;-73
2021/07/19 04:00:19;;;;;;;13.13;8.95;;;16.30;99.90;;;;;;5025256;28;25046;-73
2021/07/19 04:02:52;;;;;;;13.93;9.68;;;16.50;99.90;;;;;;5026005;28;25066;-75
2021/07/19 04:05:21;;;;;;;12.00;9.00;;;16.50;99.90;;;;;;5028582;28;25088;-76
2021/07/19 04:07:48;;;;;;;13.98;9.48;;;16.60;99.90;;;;;;5012517;28;25048;-73
2021/07/19 04:10:15;;;;;;;14.73;9.73;;;16.50;99.90;;;;;;5022661;28;25147;-73
2021/07/19 04:12:44;;;;;;;15.52;9.07;;;16.50;99.90;;;;;;5026016;28;25054;-73
2021/07/19 04:15:10;;;;;;;18.05;9.13;;;16.60;99.90;;;;;;5020813;28;25114;-73
2021/07/19 04:17:36;;;;;;;12.82;8.85;;;16.70;99.90;;;;;;5030150;28;25063;-72
2021/07/19 04:20:04;;;;;;;14.68;9.10;;;16.90;99.90;;;;;;5025136;28;25141;-74
2021/07/19 04:22:32;;;;;;;16.42;8.60;;;16.90;99.90;;;;;;5024409;28;25075;-73
2021/07/19 04:24:58;;;;;;;14.50;9.82;;;16.90;99.90;;;;;;5028907;28;25085;-73
2021/07/19 04:27:24;;;;;;;14.82;8.63;;;17.00;99.90;;;;;;5028620;28;25075;-72
2021/07/19 04:29:51;;;;;;;16.42;9.35;;;17.00;99.90;;;;;;5029302;28;25074;-74
2021/07/19 04:32:20;;;;;;;15.43;8.45;;;17.00;99.90;;;;;;5031071;28;25120;-74
2021/07/19 04:34:47;;;;;;;13.82;8.90;;;17.00;99.90;;;;;;5007584;28;25108;-71
2021/07/19 04:37:14;;;;;;;12.07;8.85;;;17.10;99.90;;;;;;5027056;28;25064;-74
2021/07/19 04:39:41;;;;;;;14.80;8.90;;;17.20;99.90;;;;;;5024989;28;25112;-75
2021/07/19 04:42:07;;;;;;;14.95;8.02;;;17.20;99.90;;;;;;5011565;28;25061;-73
2021/07/19 04:44:34;;;;;;;11.40;8.93;;;17.10;99.90;;;;;;5028081;28;25131;-73
2021/07/19 04:47:00;;;;;;;13.40;8.85;;;17.10;99.90;;;;;;5024259;28;25091;-72
2021/07/19 04:49:27;;;;;;;18.83;9.23;;;17.30;99.90;;;;;;5018084;28;25149;-73
2021/07/19 04:51:53;;;;;;;10.55;7.40;;;17.30;99.90;;;;;;5022358;28;25022;-74
2021/07/19 04:54:38;;;;;;;16.00;8.55;;;17.30;99.90;;;;;;5026927;28;25056;-74
2021/07/19 04:57:08;;;;;;;14.70;9.23;;;17.30;99.90;;;;;;5015434;28;25083;-72
2021/07/19 04:59:39;;;;;;;10.40;8.27;;;17.30;99.90;;;;;;5023756;28;25072;-74
2021/07/19 05:02:10;;;;;;;14.00;8.63;;;17.40;99.90;;;;;;5026916;28;25084;-73
2021/07/19 05:04:38;;;;;;;13.00;8.52;;;17.60;99.90;;;;;;5035054;28;25065;-74
2021/07/19 05:07:06;;;;;;;13.32;8.18;;;17.60;99.90;;;;;;5033543;28;25094;-73
2021/07/19 05:09:34;;;;;;;11.95;8.57;;;17.60;99.90;;;;;;5034681;28;25054;-71
2021/07/19 05:12:01;;;;;;;12.32;7.65;;;17.70;99.90;;;;;;5028671;28;25075;-72
2021/07/19 05:14:28;;;;;;;19.35;8.15;;;17.70;99.90;;;;;;5035830;28;25075;-74
2021/07/19 05:16:54;;;;;;;14.20;8.00;;;17.70;99.90;;;;;;5037763;28;25103;-74
2021/07/19 05:19:22;;;;;;;15.38;8.27;;;17.90;99.90;;;;;;5042531;28;25098;-75
2021/07/19 05:21:48;;;;;;;12.00;8.20;;;18.00;99.90;;;;;;5047207;28;25051;-76
2021/07/19 05:24:15;;;;;;;16.10;8.60;;;18.10;99.90;;;;;;5052384;28;25090;-75
2021/07/19 05:26:46;;;;;;;15.90;9.30;;;18.10;99.90;;;;;;5053445;28;25093;-76
2021/07/19 05:29:12;;;;;;;15.95;8.50;;;18.30;99.90;;;;;;5047679;28;25069;-76
2021/07/19 05:31:44;;;;;;;15.23;7.78;;;18.40;99.90;;;;;;5050056;28;25090;-75
2021/07/19 05:34:13;;;;;;;12.07;7.40;;;18.40;99.90;;;;;;5048205;28;25062;-75
2021/07/19 05:36:40;;;;;;;14.55;7.57;;;18.50;99.90;;;;;;5045445;28;25094;-74
2021/07/19 05:39:06;;;;;;;16.48;8.32;;;18.50;99.90;;;;;;5038755;28;25083;-75
2021/07/19 05:41:38;;;;;;;13.43;7.85;;;18.50;99.90;;;;;;5036978;28;25060;-75
2021/07/19 05:44:04;;;;;;;11.73;7.57;;;18.60;99.90;;;;;;5033204;28;25166;-72
2021/07/19 05:46:33;;;;;;;13.73;7.85;;;18.40;99.90;;;;;;5030479;28;25110;-74
2021/07/19 05:48:59;;;;;;;14.65;8.02;;;18.30;99.90;;;;;;5030947;28;25075;-73
2021/07/19 05:51:24;;;;;;;13.88;8.77;;;18.40;99.90;;;;;;5028069;28;25049;-73
2021/07/19 05:53:50;;;;;;;17.67;8.02;;;18.50;99.90;;;;;;5029340;28;25067;-73
2021/07/19 05:56:16;;;;;;;13.35;7.90;;;18.60;99.90;;;;;;5024389;28;25080;-75
2021/07/19 05:58:41;;;;;;;17.52;7.38;;;18.80;99.90;;;;;;5012312;28;25071;-75
2021/07/19 06:01:07;;;;;;;11.05;7.82;;;18.70;99.90;;;;;;5030874;28;25054;-74
2021/07/19 06:03:33;;;;;;;12.85;7.78;;;18.70;99.90;;;;;;5031816;28;25121;-75
2021/07/19 06:05:59;;;;;;;12.15;7.82;;;18.50;99.90;;;;;;5027764;28;25064;-74
2021/07/19 06:08:25;;;;;;;11.73;7.97;;;18.40;99.90;;;;;;5029399;28;25167;-74
2021/07/19 06:10:53;;;;;;;14.75;7.93;;;18.50;99.90;;;;;;5002659;28;25097;-75
2021/07/19 06:13:19;;;;;;;55.80;9.82;;;18.70;99.90;;;;;;5029055;28;25059;-73
2021/07/19 06:15:45;;;;;;;13.93;7.65;;;19.00;99.90;;;;;;5033435;28;25069;-72
2021/07/19 06:18:11;;;;;;;12.85;6.85;;;19.10;99.90;;;;;;5028492;28;25102;-73
2021/07/19 06:20:37;;;;;;;10.38;6.40;;;19.20;99.90;;;;;;5034820;28;25079;-75
2021/07/19 06:23:03;;;;;;;15.85;6.22;;;19.30;99.90;;;;;;5033394;28;25093;-71
2021/07/19 06:25:41;;;;;;;14.95;6.68;;;19.60;99.90;;;;;;5025336;28;25089;-72
2021/07/19 06:28:09;;;;;;;19.27;7.00;;;19.50;99.90;;;;;;5029495;28;25085;-75
2021/07/19 06:30:35;;;;;;;11.77;6.10;;;19.70;99.90;;;;;;5031634;28;25079;-73
2021/07/19 06:33:02;;;;;;;12.63;6.13;;;20.00;99.90;;;;;;5026233;28;25063;-73
2021/07/19 06:35:28;;;;;;;15.68;6.20;;;20.20;99.90;;;;;;5031421;28;25093;-73
2021/07/19 06:37:55;;;;;;;27.45;8.00;;;20.30;99.90;;;;;;5030901;28;25099;-74
2021/07/19 06:40:21;;;;;;;20.02;6.85;;;20.30;99.90;;;;;;5031568;28;25095;-75
2021/07/19 06:42:47;;;;;;;20.95;6.55;;;20.60;99.90;;;;;;5023809;28;25053;-73
2021/07/19 06:45:14;;;;;;;10.65;5.30;;;20.70;99.90;;;;;;5027017;28;25067;-74
2021/07/19 06:47:40;;;;;;;15.88;5.95;;;20.80;99.90;;;;;;5023090;28;25079;-75
2021/07/19 06:50:18;;;;;;;11.57;5.93;;;20.70;99.90;;;;;;5032415;28;25060;-76
2021/07/19 06:52:43;;;;;;;10.40;6.00;;;20.70;99.90;;;;;;5034737;28;25050;-73
2021/07/19 06:55:11;;;;;;;10.57;6.00;;;20.80;99.90;;;;;;5026593;28;25078;-75
2021/07/19 06:57:37;;;;;;;6.38;4.68;;;20.90;99.90;;;;;;5023439;28;25065;-73
2021/07/19 07:00:05;;;;;;;8.85;4.88;;;21.00;99.90;;;;;;5027995;28;25104;-73
2021/07/19 07:02:30;;;;;;;8.77;4.88;;;21.00;99.90;;;;;;5022425;28;25053;-74
2021/07/19 07:04:56;;;;;;;9.30;4.65;;;21.20;99.90;;;;;;5013276;28;25046;-74
2021/07/19 07:07:22;;;;;;;11.57;4.65;;;21.30;99.90;;;;;;5030960;28;25054;-73
2021/07/19 07:09:48;;;;;;;27.38;5.45;;;20.90;99.90;;;;;;5029292;28;25079;-75
2021/07/19 07:12:13;;;;;;;32.20;6.50;;;20.70;99.90;;;;;;5024567;28;25139;-74
2021/07/19 07:14:39;;;;;;;19.67;4.68;;;21.00;99.90;;;;;;5029912;28;25072;-74
2021/07/19 07:17:05;;;;;;;11.82;4.35;;;20.90;99.90;;;;;;5020858;28;25057;-75
2021/07/19 07:19:31;;;;;;;7.93;4.38;;;21.10;99.90;;;;;;5025471;28;25076;-74
2021/07/19 07:21:57;;;;;;;11.38;4.30;;;21.50;99.90;;;;;;5028581;28;25064;-73
2021/07/19 07:24:24;;;;;;;5.55;4.18;;;21.60;99.90;;;;;;5028213;28;25072;-73
2021/07/19 07:26:50;;;;;;;5.82;4.40;;;21.70;99.90;;;;;;5027194;28;25086;-75
2021/07/19 07:29:16;;;;;;;8.10;4.70;;;21.70;99.90;;;;;;5026722;28;25109;-75
2021/07/19 07:31:41;;;;;;;6.50;3.67;;;21.60;99.90;;;;;;5037429;28;25057;-74
2021/07/19 07:34:07;;;;;;;8.15;3.75;;;21.50;99.90;;;;;;5019830;28;25118;-74
2021/07/19 07:36:34;;;;;;;9.55;4.00;;;21.60;99.90;;;;;;5010250;28;25069;-75
2021/07/19 07:39:00;;;;;;;7.82;3.95;;;21.70;99.90;;;;;;5026768;28;25057;-71
2021/07/19 07:41:28;;;;;;;6.78;4.15;;;21.80;99.90;;;;;;5026733;28;25069;-75
2021/07/19 07:43:55;;;;;;;6.72;4.07;;;21.90;99.90;;;;;;5031409;28;25050;-75
2021/07/19 07:46:22;;;;;;;4.45;3.42;;;22.00;99.90;;;;;;5029536;28;25066;-76
2021/07/19 07:48:51;;;;;;;6.82;3.58;;;22.30;99.90;;;;;;5025863;28;25079;-74
2021/07/19 07:51:17;;;;;;;6.05;3.97;;;22.40;99.90;;;;;;5025494;28;25055;-75
2021/07/19 07:53:42;;;;;;;6.40;3.72;;;22.30;99.90;;;;;;5023627;28;25070;-75
2021/07/19 07:56:14;;;;;;;7.18;4.07;;;22.30;99.90;;;;;;5029112;28;25054;-75
2021/07/19 07:58:40;;;;;;;7.82;4.22;;;22.00;99.90;;;;;;5025115;28;25110;-78
2021/07/19 08:01:06;;;;;;;7.30;4.32;;;21.80;99.90;;;;;;5028701;28;25072;-74
2021/07/19 08:03:32;;;;;;;5.40;4.53;;;21.80;99.90;;;;;;5032102;28;25099;-75
2021/07/19 08:05:57;;;;;;;9.45;5.65;;;21.60;99.90;;;;;;5035011;28;25150;-75
2021/07/19 08:08:23;;;;;;;8.98;5.68;;;21.60;99.90;;;;;;5010295;28;25062;-75
2021/07/19 08:10:49;;;;;;;8.80;5.60;;;21.40;99.90;;;;;;5024040;28;25087;-75
2021/07/19 08:13:15;;;;;;;9.38;5.28;;;21.30;99.90;;;;;;5023483;28;25136;-74
2021/07/19 08:15:41;;;;;;;8.05;5.88;;;21.30;99.90;;;;;;5023575;28;25116;-74
2021/07/19 08:18:06;;;;;;;11.00;5.82;;;21.30;99.90;;;;;;5022250;28;25115;-75
2021/07/19 08:20:32;;;;;;;9.85;6.32;;;21.10;99.90;;;;;;5026006;28;25106;-77
2021/07/19 08:22:58;;;;;;;10.07;6.72;;;21.10;99.90;;;;;;5014969;28;25138;-76
2021/07/19 08:25:24;;;;;;;7.65;6.43;;;21.00;99.90;;;;;;5031513;28;25043;-73
2021/07/19 08:27:50;;;;;;;12.65;6.97;;;21.00;99.90;;;;;;5029044;28;25092;-76
2021/07/19 08:30:17;;;;;;;9.70;5.82;;;20.90;99.90;;;;;;5030502;28;25071;-74
2021/07/19 08:32:42;;;;;;;9.88;6.22;;;20.90;99.90;;;;;;5023423;28;25116;-75
2021/07/19 08:35:10;;;;;;;10.85;6.35;;;20.80;99.90;;;;;;5033110;28;25088;-76
2021/07/19 08:37:38;;;;;;;9.60;6.55;;;20.90;99.90;;;;;;5046010;28;25053;-77
2021/07/19 08:40:06;;;;;;;15.35;6.82;;;21.00;99.90;;;;;;5044968;28;25088;-78
2021/07/19 08:42:34;;;;;;;11.27;7.00;;;21.00;99.90;;;;;;5032590;28;25059;-77
2021/07/19 08:45:00;;;;;;;11.48;7.50;;;21.10;99.90;;;;;;5039259;28;25080;-76
2021/07/19 08:47:26;;;;;;;12.25;6.35;;;21.30;99.90;;;;;;5038879;28;25066;-75
2021/07/19 08:49:52;;;;;;;12.85;6.75;;;21.20;99.90;;;;;;5035512;28;25157;-77
2021/07/19 08:52:22;;;;;;;9.75;6.95;;;21.00;99.90;;;;;;5027787;28;25110;-75
2021/07/19 08:54:48;;;;;;;12.38;6.50;;;21.00;99.90;;;;;;5008013;28;25146;-75
2021/07/19 08:57:15;;;;;;;14.35;6.90;;;20.90;99.90;;;;;;5036924;28;25075;-75
2021/07/19 08:59:45;;;;;;;12.88;7.05;;;21.10;99.90;;;;;;5035931;28;25262;-76
2021/07/19 09:02:10;;;;;;;10.05;7.05;;;21.50;99.90;;;;;;5032880;28;25054;-75
2021/07/19 09:04:37;;;;;;;14.55;7.20;;;21.80;99.90;;;;;;5036283;28;25061;-76
2021/07/19 09:07:04;;;;;;;14.90;6.55;;;21.90;99.90;;;;;;5032116;28;25063;-75
2021/07/19 09:09:33;;;;;;;9.60;6.10;;;21.70;99.90;;;;;;5032730;28;25097;-76
2021/07/19 09:12:04;;;;;;;11.35;6.68;;;21.90;99.90;;;;;;5035987;28;25069;-76
2021/07/19 09:14:30;;;;;;;9.35;7.07;;;21.50;99.90;;;;;;5037542;28;25069;-75
2021/07/19 09:16:56;;;;;;;12.05;7.13;;;21.00;99.90;;;;;;5030333;28;25147;-76
2021/07/19 09:19:24;;;;;;;10.98;7.07;;;20.50;99.90;;;;;;5031978;28;25082;-76
2021/07/19 09:21:55;;;;;;;9.35;6.65;;;20.70;99.90;;;;;;5032797;28;25077;-76
2021/07/19 09:24:36;;;;;;;10.75;7.10;;;21.10;99.90;;;;;;5029031;28;25053;-77
2021/07/19 09:27:02;;;;;;;14.43;8.20;;;21.00;99.90;;;;;;5024302;28;25058;-77
2021/07/19 09:29:27;;;;;;;11.95;8.07;;;20.80;99.90;;;;;;5037432;28;25056;-75
2021/07/19 09:31:57;;;;;;;13.23;8.15;;;20.90;99.90;;;;;;5052421;28;25098;-77
2021/07/19 09:34:28;;;;;;;14.55;9.05;;;20.70;99.90;;;;;;5035701;28;25058;-77
2021/07/19 09:37:04;;;;;;;15.18;8.48;;;20.30;99.90;;;;;;5040972;28;25106;-77
2021/07/19 09:39:53;;;;;;;18.98;9.60;;;20.70;99.90;;;;;;5034744;28;25065;-73
2021/07/19 09:42:24;;;;;;;14.52;9.07;;;20.90;99.90;;;;;;5027234;28;25151;-75
2021/07/19 09:44:51;;;;;;;11.90;8.23;;;21.20;99.90;;;;;;5032245;28;25113;-76
2021/07/19 09:47:18;;;;;;;14.82;8.60;;;21.50;99.90;;;;;;5033719;28;25069;-76
2021/07/19 09:49:45;;;;;;;12.63;8.43;;;21.90;99.90;;;;;;5038107;28;25055;-74
2021/07/19 09:52:12;;;;;;;16.15;8.25;;;22.10;99.90;;;;;;5042480;28;25070;-77
2021/07/19 09:54:39;;;;;;;12.02;9.00;;;21.70;99.90;;;;;;5041454;28;25050;-74
2021/07/19 09:57:05;;;;;;;17.23;8.57;;;21.60;99.90;;;;;;5020420;28;25073;-77
2021/07/19 09:59:33;;;;;;;14.15;8.45;;;21.60;99.90;;;;;;5034888;28;25159;-75
2021/07/19 10:01:59;;;;;;;13.65;8.50;;;21.50;99.90;;;;;;5033898;28;25141;-75
2021/07/19 10:04:26;;;;;;;15.68;9.15;;;21.60;99.90;;;;;;5035723;28;25058;-76
2021/07/19 10:06:54;;;;;;;12.88;9.52;;;21.40;99.90;;;;;;5034339;28;25063;-76
2021/07/19 10:09:21;;;;;;;12.68;9.02;;;21.80;99.90;;;;;;5031099;28;25067;-74
2021/07/19 10:11:55;;;;;;;12.80;8.23;;;21.50;99.90;;;;;;5028541;28;25145;-77
2021/07/19 10:14:35;;;;;;;12.95;8.98;;;21.40;99.90;;;;;;5033491;28;25087;-78
2021/07/19 10:17:03;;;;;;;16.88;9.95;;;21.60;99.90;;;;;;5023917;28;25094;-75
2021/07/19 10:19:30;;;;;;;13.48;8.50;;;21.40;99.90;;;;;;5029084;28;25050;-78
2021/07/19 10:21:56;;;;;;;14.35;9.50;;;21.30;99.90;;;;;;5032651;28;25055;-76
2021/07/19 10:24:22;;;;;;;13.48;8.98;;;21.30;99.90;;;;;;5031268;28;25086;-77
2021/07/19 10:26:49;;;;;;;11.50;8.55;;;21.40;99.90;;;;;;5032213;28;25062;-77
2021/07/19 10:29:16;;;;;;;13.35;8.35;;;21.60;99.90;;;;;;5022935;28;25066;-77
2021/07/19 10:31:48;;;;;;;15.70;9.27;;;21.80;99.90;;;;;;5047310;28;25075;-80
2021/07/19 10:34:18;;;;;;;18.10;10.32;;;21.80;99.90;;;;;;5027807;28;25070;-78
2021/07/19 10:37:00;;;;;;;16.88;9.63;;;21.70;99.90;;;;;;5025509;28;25136;-78
2021/07/19 10:39:35;;;;;;;14.18;9.57;;;21.60;99.90;;;;;;5022376;28;25152;-78
2021/07/19 10:42:10;;;;;;;11.25;8.20;;;21.00;99.90;;;;;;5031044;28;25133;-76
2021/07/19 10:44:38;;;;;;;15.88;8.55;;;21.20;99.90;;;;;;5014845;28;25051;-76
2021/07/19 10:47:16;;;;;;;12.50;8.23;;;21.40;99.90;;;;;;5034251;28;25071;-77
2021/07/19 10:50:05;;;;;;;17.42;10.57;;;21.80;99.90;;;;;;5031834;28;25078;-77
2021/07/19 10:52:38;;;;;;;18.70;10.57;;;21.40;99.90;;;;;;5034946;28;25074;-78
2021/07/19 10:55:10;;;;;;;17.30;10.40;;;21.20;99.90;;;;;;5032180;28;25057;-77
2021/07/19 10:57:41;;;;;;;15.40;10.48;;;21.10;99.90;;;;;;5034788;28;25076;-77
2021/07/19 11:00:12;;;;;;;16.05;8.18;;;21.20;99.90;;;;;;5030652;28;25066;-76
2021/07/19 11:02:40;;;;;;;16.15;8.88;;;21.60;99.90;;;;;;5028545;28;25089;-76
2021/07/19 11:05:09;;;;;;;17.50;9.30;;;22.00;99.90;;;;;;5028170;28;25046;-78
2021/07/19 11:07:45;;;;;;;12.82;9.30;;;22.10;99.90;;;;;;5035491;28;25053;-78
2021/07/19 11:10:20;;;;;;;13.50;8.52;;;22.10;99.90;;;;;;5033628;28;25063;-80
2021/07/19 11:12:54;;;;;;;18.42;9.43;;;21.80;99.90;;;;;;5026177;28;25072;-77
2021/07/19 11:15:38;;;;;;;13.55;8.35;;;21.60;99.90;;;;;;5043816;28;25082;-79
2021/07/19 11:18:17;;;;;;;16.27;8.73;;;21.80;99.90;;;;;;5039433;28;25059;-78
2021/07/19 11:20:47;;;;;;;13.20;8.48;;;22.20;99.90;;;;;;5036689;28;25061;-78
2021/07/19 11:23:23;;;;;;;12.80;8.65;;;22.20;99.90;;;;;;5039821;28;25053;-77
2021/07/19 11:25:52;;;;;;;13.60;8.13;;;22.00;99.90;;;;;;5035397;28;25069;-77
2021/07/19 11:28:22;;;;;;;14.57;8.82;;;22.40;99.90;;;;;;5043172;28;25045;-78
2021/07/19 11:31:11;;;;;;;11.75;7.55;;;22.80;99.90;;;;;;5055768;28;25088;-78
2021/07/19 11:34:03;;;;;;;15.85;10.50;;;23.20;99.90;;;;;;5043140;28;25059;-78
2021/07/19 11:36:57;;;;;;;12.98;9.60;;;22.10;99.90;;;;;;5044243;28;25105;-79
2021/07/19 11:39:23;;;;;;;12.68;8.02;;;21.90;99.90;;;;;;5016550;28;25070;-77
2021/07/19 11:42:04;;;;;;;15.50;8.80;;;22.10;99.90;;;;;;5017393;28;25045;-78
2021/07/19 11:44:32;;;;;;;15.25;9.27;;;22.20;99.90;;;;;;5025369;28;25129;-78
2021/07/19 11:47:03;;;;;;;15.85;7.53;;;22.10;99.90;;;;;;5011893;28;25072;-76
2021/07/19 11:49:44;;;;;;;11.65;7.80;;;22.10;99.90;;;;;;5023057;28;25064;-78
2021/07/19 11:52:23;;;;;;;13.93;7.70;;;22.20;99.90;;;;;;5027715;28;25069;-79
2021/07/19 11:54:49;;;;;;;14.98;7.80;;;22.40;99.90;;;;;;5032495;28;25109;-79
2021/07/19 11:57:16;;;;;;;10.40;7.15;;;22.70;99.90;;;;;;5036432;28;25068;-79
2021/07/19 11:59:44;;;;;;;11.13;6.63;;;22.90;99.90;;;;;;5015461;28;25099;-79
2021/07/19 12:02:11;;;;;;;10.95;7.47;;;23.00;99.90;;;;;;5031617;28;25062;-79
2021/07/19 12:04:39;;;;;;;14.20;7.72;;;22.90;99.90;;;;;;5023264;28;25061;-78
2021/07/19 12:07:07;;;;;;;11.73;6.72;;;22.70;99.90;;;;;;5040433;28;25069;-78
2021/07/19 12:09:35;;;;;;;14.65;7.70;;;23.10;99.90;;;;;;5042017;28;25098;-78
2021/07/19 12:12:02;;;;;;;9.50;6.25;;;23.10;99.90;;;;;;5027967;28;25095;-77
2021/07/19 12:14:29;;;;;;;9.75;6.65;;;23.20;99.90;;;;;;5046624;28;25097;-80
2021/07/19 12:16:57;;;;;;;11.68;6.43;;;23.10;99.90;;;;;;5036921;28;25078;-80
2021/07/19 12:19:27;;;;;;;13.90;7.15;;;22.80;99.90;;;;;;5050649;28;25070;-78
2021/07/19 12:21:59;;;;;;;11.38;6.55;;;22.60;99.90;;;;;;5044435;28;25065;-79
2021/07/19 12:24:30;;;;;;;10.40;6.15;;;22.40;99.90;;;;;;5035340;28;25078;-76
2021/07/19 12:27:00;;;;;;;10.25;6.85;;;22.70;99.90;;;;;;5051997;28;25084;-77
2021/07/19 12:29:36;;;;;;;10.20;5.88;;;23.00;99.90;;;;;;5055409;28;25048;-78
2021/07/19 12:32:11;;;;;;;13.02;6.00;;;23.00;99.90;;;;;;5042261;28;25066;-78
2021/07/19 12:34:41;;;;;;;11.35;6.28;;;22.90;99.90;;;;;;5036512;28;25056;-77
2021/07/19 12:37:25;;;;;;;9.30;5.80;;;23.20;99.90;;;;;;5041224;28;25050;-78
2021/07/19 12:39:58;;;;;;;10.52;6.13;;;23.10;99.90;;;;;;5045425;28;25085;-78
2021/07/19 12:42:34;;;;;;;9.95;6.80;;;23.50;99.90;;;;;;5027503;28;25067;-78
2021/07/19 12:45:00;;;;;;;6.28;5.47;;;23.70;99.90;;;;;;5028718;28;25062;-79
2021/07/19 12:47:27;;;;;;;8.30;5.45;;;23.90;99.90;;;;;;5027547;28;25070;-77